الصفحة الرئيسية
METAR-TAF:

METAR-TAF

مطار :

Dzaoudzi, مايوت

دائرة عرض: 12-48S, خط طول: 045-17E, ارتفاع: 8 متر

مراقبة الطقس الحالي

تاريخ ووقت الإصدار 35 دقيقة قبل الساعة 10:00UTC
ريح 4 عقدةمن اتجاهات متغيرة
درجة الحرارة 32°درجة مئوية
الرطوبة 59%
ضغط 1011 hPa
الرؤية 10 كم أو أكثر
غيوم مفككة على ارتفاع 3200 قدم
غيوم مفككة على ارتفاع 3900 قدم

METAR: FMCZ 251000Z AUTO VRB04KT 9999 BKN032 BKN039 32/23 Q1011 NOSIG

زمن: 13:35 (10:35 UTC)

توقعات

تاريخ ووقت الإصدار 5ساعات و 35 دقيقة قبل الساعة 05:00UTC
التوقعات صالحة من25 الساعة 06 UTC إلى 26 الساعة 06 UTC
ريح 6 عقدة من الشمال/الشمال الشرقي
الرؤية 10 كم أو أكثر
غيوم قليلة على ارتفاع 2000 قدم

TAF: FMCZ 250500Z 2506/2606 03006KT 9999 FEW020

أرصاد الطقس والتوقعات من أكثر من 4000 مطار (تقارير الطقس للمطار METAR والتنبؤ بالطقس بالمطارTAF).

المحطات المتاحة هي النقط الصفراء والحمراء على الخريطة.

حرك المؤشر فوق النقطة لمعرفة اسم المحطة.

ثم انقر لمعرفة أرصاد وتوقعات الطقس.

لتغيير الخارطة: اضغط على الأزرار الخضراء مع رمز الصليب الأسود للتكبير. على الزر الأخضر مع شرطة للتصغير، أو على الأسهم الخضراء للخرائط المجاورة.


METAR-TAF: